| time (UTC) | temp F | wind direction | speed MPH | gust MPH | rain 1hr in | rain 24hr in | rain mn in | humidity % | barometer mb |
| 20260505214516 | 68 | 0.0 | 3.0 | 0.00 | 0.38 | 0.00 | 37 | 1016.4 | |
| 20260505213516 | 68 | 338 | 5.0 | 12.0 | 0.00 | 0.38 | 0.00 | 37 | 1016.4 |
| 20260505212516 | 67 | 23 | 3.0 | 10.0 | 0.00 | 0.38 | 0.00 | 36 | 1016.4 |
| 20260505211517 | 67 | 248 | 2.0 | 9.0 | 0.00 | 0.38 | 0.00 | 37 | 1016.3 |
| 20260505210516 | 67 | 23 | 6.0 | 11.0 | 0.00 | 0.38 | 0.00 | 40 | 1016.4 |
| 20260505205516 | 67 | 90 | 1.0 | 7.0 | 0.00 | 0.38 | 0.00 | 41 | 1016.5 |
| 20260505204536 | 66 | 315 | 3.0 | 10.0 | 0.00 | 0.38 | 0.00 | 41 | 1016.2 |
| 20260505203516 | 66 | 338 | 6.0 | 12.0 | 0.00 | 0.38 | 0.00 | 42 | 1016.4 |
| 20260505202516 | 66 | 0.0 | 4.0 | 0.00 | 0.38 | 0.00 | 45 | 1016.5 | |
| 20260505201516 | 65 | 135 | 1.0 | 6.0 | 0.00 | 0.38 | 0.00 | 49 | 1016.7 |
| 20260505200516 | 64 | 203 | 1.0 | 5.0 | 0.00 | 0.38 | 0.00 | 52 | 1016.8 |
| 20260505195516 | 63 | 158 | 2.0 | 7.0 | 0.00 | 0.38 | 0.00 | 53 | 1016.5 |
| 20260505194516 | 62 | 225 | 6.0 | 10.0 | 0.00 | 0.38 | 0.00 | 56 | 1016.4 |
| 20260505193516 | 63 | 293 | 3.0 | 8.0 | 0.00 | 0.38 | 0.00 | 57 | 1016.7 |
| 20260505192516 | 63 | 135 | 3.0 | 7.0 | 0.00 | 0.38 | 0.00 | 58 | 1016.5 |
| 20260505191516 | 61 | 203 | 2.0 | 5.0 | 0.00 | 0.38 | 0.00 | 58 | 1016.5 |
| 20260505190516 | 60 | 270 | 2.0 | 6.0 | 0.00 | 0.38 | 0.00 | 59 | 1016.4 |
| 20260505185516 | 60 | 225 | 2.0 | 7.0 | 0.00 | 0.38 | 0.00 | 60 | 1016.5 |
| 20260505184516 | 59 | 270 | 1.0 | 3.0 | 0.00 | 0.38 | 0.00 | 59 | 1016.2 |
| 20260505183516 | 59 | 248 | 1.0 | 5.0 | 0.00 | 0.38 | 0.00 | 64 | 1016.3 |
| 20260505182516 | 59 | 0.0 | 4.0 | 0.00 | 0.38 | 0.00 | 64 | 1016.4 | |
| 20260505181516 | 58 | 180 | 3.0 | 9.0 | 0.00 | 0.38 | 0.00 | 65 | 1016.4 |
| 20260505180516 | 57 | 0.0 | 3.0 | 0.00 | 0.38 | 0.00 | 66 | 1016.1 | |
| 20260505175516 | 57 | 135 | 2.0 | 6.0 | 0.00 | 0.38 | 0.00 | 68 | 1016.0 |
| 20260505174516 | 56 | 225 | 1.0 | 7.0 | 0.00 | 0.38 | 0.00 | 70 | 1016.0 |
| 20260505173516 | 56 | 0.0 | 0.0 | 0.00 | 0.38 | 0.00 | 70 | 1015.9 | |
| 20260505172516 | 55 | 158 | 4.0 | 8.0 | 0.00 | 0.38 | 0.00 | 72 | 1015.5 |
| 20260505171516 | 54 | 158 | 7.0 | 11.0 | 0.00 | 0.38 | 0.00 | 71 | 1015.5 |
| 20260505170516 | 54 | 0.0 | 0.0 | 0.00 | 0.38 | 0.00 | 73 | 1015.5 | |
| 20260505165516 | 53 | 0.0 | 0.0 | 0.00 | 0.38 | 0.00 | 73 | 1015.4 | |
| 20260505164516 | 52 | 0.0 | 0.0 | 0.00 | 0.38 | 0.00 | 77 | 1015.2 | |
| 20260505163516 | 51 | 0.0 | 0.0 | 0.00 | 0.38 | 0.00 | 76 | 1014.8 | |
| 20260505162516 | 51 | 0.0 | 0.0 | 0.00 | 0.38 | 0.00 | 77 | 1014.8 | |
| 20260505161516 | 51 | 0.0 | 0.0 | 0.00 | 0.38 | 0.00 | 77 | 1014.7 | |
| 20260505160516 | 51 | 0.0 | 0.0 | 0.00 | 0.38 | 0.00 | 78 | 1014.7 | |
| 20260505152516 | 49 | 0.0 | 0.0 | 0.00 | 0.38 | 0.00 | 80 | 1014.0 | |
| 20260505151516 | 49 | 0.0 | 0.0 | 0.00 | 0.38 | 0.00 | 80 | 1013.9 | |
| 20260505150516 | 49 | 0.0 | 0.0 | 0.00 | 0.38 | 0.00 | 81 | 1013.8 | |
| 20260505140515 | 47 | 0.0 | 0.0 | 0.00 | 0.38 | 0.00 | 88 | 1013.3 | |
| 20260505124516 | 47 | 135 | 4.0 | 8.0 | 0.00 | 0.38 | 0.00 | 83 | 1014.1 |
| 20260505123536 | 47 | 0.0 | 0.0 | 0.00 | 0.38 | 0.00 | 83 | 1014.1 | |
| 20260505122516 | 48 | 0.0 | 0.0 | 0.00 | 0.38 | 0.00 | 83 | 1013.9 | |
| 20260505121515 | 47 | 0.0 | 0.0 | 0.00 | 0.38 | 0.00 | 82 | 1013.9 | |
| 20260505120515 | 47 | 0.0 | 0.0 | 0.00 | 0.38 | 0.00 | 85 | 1014.3 | |
| 20260505115516 | 47 | 0.0 | 0.0 | 0.00 | 0.38 | 0.00 | 85 | 1014.3 | |
| 20260505114516 | 47 | 158 | 6.0 | 9.0 | 0.00 | 0.38 | 0.00 | 85 | 1014.2 |
| 20260505113515 | 47 | 135 | 2.0 | 10.0 | 0.00 | 0.38 | 0.00 | 81 | 1014.4 |
| 20260505112516 | 47 | 0.0 | 0.0 | 0.00 | 0.38 | 0.00 | 82 | 1014.4 | |
| 20260505111516 | 47 | 0.0 | 0.0 | 0.00 | 0.38 | 0.00 | 83 | 1014.6 | |
| 20260505110515 | 46 | 135 | 1.0 | 8.0 | 0.00 | 0.38 | 0.00 | 84 | 1014.8 |
| 20260505101515 | 46 | 180 | 3.0 | 5.0 | 0.00 | 0.38 | 0.00 | 86 | 1014.8 |
| 20260505100516 | 47 | 158 | 4.0 | 6.0 | 0.00 | 0.38 | 0.00 | 84 | 1014.9 |
| 20260505095515 | 47 | 135 | 6.0 | 7.0 | 0.00 | 0.38 | 0.00 | 81 | 1014.6 |
| 20260505094515 | 47 | 135 | 4.0 | 7.0 | 0.00 | 0.38 | 0.00 | 82 | 1014.5 |
| 20260505093535 | 47 | 113 | 6.0 | 11.0 | 0.00 | 0.38 | 0.00 | 82 | 1014.9 |
| 20260505092515 | 46 | 113 | 7.0 | 10.0 | 0.00 | 0.38 | 0.00 | 85 | 1014.7 |
| 20260505091515 | 46 | 158 | 9.0 | 12.0 | 0.00 | 0.38 | 0.00 | 87 | 1015.0 |
| 20260505090515 | 46 | 135 | 1.0 | 11.0 | 0.00 | 0.38 | 0.00 | 86 | 1014.9 |
| 20260505085515 | 46 | 0.0 | 0.0 | 0.00 | 0.38 | 0.00 | 88 | 1015.0 | |
| 20260505084535 | 45 | 0.0 | 0.0 | 0.00 | 0.38 | 0.00 | 89 | 1015.1 | |
| 20260505083535 | 45 | 0.0 | 0.0 | 0.00 | 0.38 | 0.00 | 90 | 1015.5 | |
| 20260505082515 | 45 | 0.0 | 7.0 | 0.00 | 0.38 | 0.00 | 92 | 1015.8 | |
| 20260505081515 | 46 | 158 | 9.0 | 11.0 | 0.00 | 0.38 | 0.00 | 92 | 1015.5 |
| 20260505080515 | 46 | 135 | 5.0 | 7.0 | 0.00 | 0.38 | 0.00 | 93 | 1015.6 |
| 20260505075515 | 45 | 135 | 6.0 | 9.0 | 0.00 | 0.38 | 0.00 | 94 | 1015.3 |
| 20260505074515 | 45 | 135 | 5.0 | 7.0 | 0.00 | 0.38 | 0.00 | 94 | 1015.3 |
| 20260505073515 | 46 | 135 | 6.0 | 8.0 | 0.00 | 0.38 | 0.00 | 95 | 1015.2 |
| 20260505072515 | 46 | 135 | 4.0 | 5.0 | 0.00 | 0.38 | 0.00 | 95 | 1015.0 |
| 20260505071515 | 46 | 158 | 3.0 | 4.0 | 0.00 | 0.38 | 0.00 | 95 | 1015.3 |
| 20260505070535 | 46 | 135 | 6.0 | 7.0 | 0.00 | 0.38 | 0.00 | 95 | 1015.3 |
| 20260505065515 | 46 | 135 | 8.0 | 10.0 | 0.00 | 0.38 | 0.38 | 95 | 1015.3 |
| 20260505064515 | 46 | 113 | 5.0 | 8.0 | 0.00 | 0.38 | 0.38 | 94 | 1014.9 |
| 20260505063517 | 46 | 135 | 8.0 | 11.0 | 0.00 | 0.38 | 0.38 | 94 | 1015.0 |
| 20260505062517 | 47 | 135 | 5.0 | 7.0 | 0.00 | 0.38 | 0.38 | 95 | 1014.8 |
| 20260505061517 | 46 | 68 | 1.0 | 5.0 | 0.00 | 0.38 | 0.38 | 95 | 1014.5 |
| 20260505060517 | 46 | 315 | 3.0 | 10.0 | 0.00 | 0.38 | 0.38 | 95 | 1014.2 |
| 20260505055517 | 46 | 0.0 | 0.0 | 0.01 | 0.38 | 0.38 | 95 | 1014.1 | |
| 20260505054517 | 47 | 0.0 | 0.0 | 0.02 | 0.38 | 0.38 | 94 | 1014.6 | |
| 20260505053517 | 46 | 0.0 | 0.0 | 0.02 | 0.38 | 0.38 | 94 | 1014.5 | |
| 20260505052517 | 46 | 23 | 3.0 | 10.0 | 0.02 | 0.38 | 0.38 | 94 | 1014.8 |
| 20260505051517 | 47 | 0.0 | 0.0 | 0.02 | 0.38 | 0.38 | 94 | 1015.0 | |
| 20260505050517 | 47 | 158 | 2.0 | 5.0 | 0.02 | 0.38 | 0.38 | 94 | 1014.5 |
| 20260505041517 | 46 | 158 | 4.0 | 7.0 | 0.01 | 0.36 | 0.36 | 94 | 1013.9 |
| 20260505040537 | 46 | 158 | 4.0 | 6.0 | 0.01 | 0.36 | 0.36 | 94 | 1013.6 |
| 20260505035517 | 46 | 158 | 5.0 | 7.0 | 0.01 | 0.36 | 0.36 | 94 | 1013.7 |
| 20260505034517 | 46 | 158 | 6.0 | 9.0 | 0.01 | 0.36 | 0.36 | 94 | 1013.1 |
| 20260505033517 | 46 | 135 | 9.0 | 13.0 | 0.01 | 0.36 | 0.36 | 94 | 1013.0 |
| 20260505032517 | 46 | 158 | 7.0 | 9.0 | 0.01 | 0.36 | 0.36 | 94 | 1013.2 |
| 20260505031517 | 46 | 158 | 7.0 | 9.0 | 0.00 | 0.35 | 0.35 | 94 | 1013.4 |
| 20260505030516 | 46 | 180 | 5.0 | 8.0 | 0.00 | 0.35 | 0.35 | 93 | 1013.4 |
| 20260505025517 | 47 | 158 | 9.0 | 15.0 | 0.02 | 0.35 | 0.35 | 94 | 1013.2 |
| 20260505024517 | 48 | 135 | 9.0 | 13.0 | 0.02 | 0.35 | 0.35 | 94 | 1012.8 |
| 20260505023516 | 47 | 135 | 10.0 | 14.0 | 0.03 | 0.35 | 0.35 | 94 | 1012.2 |
| 20260505022516 | 47 | 158 | 10.0 | 16.0 | 0.03 | 0.35 | 0.35 | 94 | 1012.4 |
| 20260505021557 | 47 | 158 | 10.0 | 15.0 | 0.05 | 0.35 | 0.35 | 94 | 1012.2 |
| 20260505020516 | 47 | 135 | 9.0 | 13.0 | 0.33 | 0.35 | 0.35 | 93 | 1013.0 |
| 20260505015537 | 47 | 135 | 9.0 | 12.0 | 0.31 | 0.33 | 0.33 | 93 | 1013.1 |
| 20260505014537 | 47 | 135 | 9.0 | 15.0 | 0.31 | 0.33 | 0.33 | 93 | 1012.9 |
| 20260505013536 | 47 | 158 | 9.0 | 13.0 | 0.30 | 0.32 | 0.32 | 92 | 1013.0 |
| 20260505012516 | 47 | 180 | 13.0 | 18.0 | 0.30 | 0.32 | 0.32 | 91 | 1012.7 |
| 20260505011517 | 48 | 135 | 11.0 | 17.0 | 0.28 | 0.30 | 0.30 | 90 | 1013.0 |
| 20260505010537 | 51 | 135 | 27.0 | 36.0 | 0.00 | 0.02 | 0.02 | 71 | 1013.1 |
| 20260505005557 | 57 | 158 | 11.0 | 20.0 | 0.00 | 0.02 | 0.02 | 64 | 1013.9 |
| 20260505004516 | 57 | 248 | 5.0 | 10.0 | 0.00 | 0.02 | 0.02 | 63 | 1012.9 |
| 20260505003516 | 57 | 293 | 11.0 | 16.0 | 0.00 | 0.02 | 0.02 | 61 | 1012.7 |
| 20260505002537 | 58 | 203 | 9.0 | 14.0 | 0.00 | 0.02 | 0.02 | 60 | 1012.6 |
| 20260505001517 | 58 | 158 | 11.0 | 15.0 | 0.00 | 0.02 | 0.02 | 62 | 1011.7 |
| 20260505000516 | 59 | 180 | 9.0 | 14.0 | 0.00 | 0.02 | 0.02 | 59 | 1012.2 |
| 20260504235517 | 59 | 225 | 10.0 | 16.0 | 0.00 | 0.02 | 0.02 | 60 | 1012.3 |
| 20260504234516 | 59 | 225 | 11.0 | 16.0 | 0.00 | 0.02 | 0.02 | 59 | 1012.2 |
| 20260504233516 | 61 | 225 | 11.0 | 18.0 | 0.00 | 0.02 | 0.02 | 56 | 1012.5 |
| 20260504232557 | 61 | 248 | 13.0 | 20.0 | 0.00 | 0.02 | 0.02 | 56 | 1012.3 |
| 20260504231516 | 63 | 248 | 15.0 | 23.0 | 0.00 | 0.02 | 0.02 | 53 | 1012.6 |
| 20260504230516 | 64 | 248 | 11.0 | 18.0 | 0.00 | 0.02 | 0.02 | 50 | 1012.9 |
| 20260504225536 | 64 | 270 | 11.0 | 17.0 | 0.00 | 0.02 | 0.02 | 52 | 1013.3 |
| 20260504224536 | 64 | 135 | 5.0 | 13.0 | 0.00 | 0.02 | 0.02 | 46 | 1012.8 |
| 20260504223516 | 64 | 225 | 8.0 | 14.0 | 0.02 | 0.02 | 0.02 | 49 | 1013.2 |
| 20260504222536 | 63 | 225 | 12.0 | 17.0 | 0.02 | 0.02 | 0.02 | 51 | 1013.4 |
| 20260504221516 | 63 | 225 | 8.0 | 14.0 | 0.02 | 0.02 | 0.02 | 52 | 1013.4 |
| 20260504220516 | 61 | 225 | 8.0 | 17.0 | 0.02 | 0.02 | 0.02 | 59 | 1013.6 |
| 20260504215516 | 59 | 225 | 8.0 | 12.0 | 0.02 | 0.02 | 0.02 | 60 | 1013.4 |